Triangle, Virginia
Current Conditions -  °F | °C
As of 8:56 PM on Saturday 20 Dec 2014 (Local Time) from KNYG Reporting Station
Broken Clouds Broken Clouds  
Wind Chill: 29°   Ceiling: 9000
Heat Index: 33°   Visibility: 10mi
Dew Point: 25°   Wind: 5mph
Humidity: 72%   Direction: 310°NW
Pressure: 30.32"   Gusts: NA
Location:  38.55°N, 77.34°W
Report Text: KNYG 210156Z AUTO 31004KT 10SM BKN090 01/M04 A3032 RMK AO2 SLP269 T00061039 $
Loading
Personal Weather Stations






























Interactive Weather Map New forecast layout! Learn more

10-Day Weather Forecast

Advertisements
Track Severe Weather on mobile